Time;durP1;ratioP1;P1;durP2;ratioP2;P2;SDS_P1;SDS_P2;PMS_P1;PMS_P2;Temp;Humidity;BMP_temperature;BMP_pressure;BME280_temperature;BME280_humidity;BME280_pressure;Samples;Min_cycle;Max_cycle;Signal;HPM_P1;HPM_P2
2022/01/20 00:00:12;;;;;;;3.03;1.35;;;17.50;52.40;;;;;;4949102;28;20042;-64
2022/01/20 00:02:40;;;;;;;3.85;1.20;;;17.60;52.50;;;;;;4945649;28;20126;-62
2022/01/20 00:05:14;;;;;;;1.55;0.85;;;17.50;52.40;;;;;;4949246;28;20142;-59
2022/01/20 00:08:00;;;;;;;1.20;0.90;;;17.50;52.40;;;;;;4948524;28;20798;-60
2022/01/20 00:26:53;;;;;;;3.15;0.93;;;17.50;52.50;;;;;;4948581;28;20051;-57
2022/01/20 00:29:30;;;;;;;2.25;0.77;;;17.50;52.50;;;;;;4948529;28;20054;-56
2022/01/20 00:32:06;;;;;;;1.33;0.88;;;17.50;52.50;;;;;;4948900;28;20799;-52
2022/01/20 00:35:04;;;;;;;;;;;17.50;52.50;;;;;;4943122;28;20130;-57
2022/01/20 00:37:31;;;;;;;2.35;1.08;;;17.50;52.30;;;;;;4946310;28;20420;-53
2022/01/20 00:39:58;;;;;;;1.15;1.05;;;17.40;52.50;;;;;;4950326;29;20605;-62
2022/01/20 00:42:26;;;;;;;1.20;0.65;;;17.40;52.50;;;;;;4945262;28;20058;-61
2022/01/20 00:44:53;;;;;;;3.00;1.13;;;17.40;52.40;;;;;;4947683;28;20043;-59
2022/01/20 00:47:22;;;;;;;1.25;0.93;;;17.50;52.50;;;;;;4948501;28;20074;-55
2022/01/20 00:49:49;;;;;;;1.30;1.20;;;17.50;52.50;;;;;;4931589;29;20141;-56
2022/01/20 00:52:17;;;;;;;1.90;0.70;;;17.50;52.50;;;;;;4948535;28;20058;-57
2022/01/20 00:54:44;;;;;;;2.90;0.98;;;17.50;52.50;;;;;;4948892;28;20071;-55
2022/01/20 00:57:11;;;;;;;1.65;0.85;;;17.50;52.40;;;;;;4946800;28;20062;-59
2022/01/20 00:59:38;;;;;;;0.90;0.90;;;17.50;52.50;;;;;;4944492;28;20081;-59
2022/01/20 01:02:08;;;;;;;1.38;0.90;;;17.50;52.40;;;;;;4947944;28;20543;-53
2022/01/20 01:04:37;;;;;;;2.15;0.60;;;17.50;52.50;;;;;;4948175;28;20039;-54
2022/01/20 01:09:52;;;;;;;2.50;1.08;;;17.50;52.40;;;;;;4882068;29;20052;-57
2022/01/20 01:12:29;;;;;;;2.13;1.80;;;17.50;52.40;;;;;;4892793;29;20060;-58
2022/01/20 01:14:57;;;;;;;1.45;0.43;;;17.50;52.40;;;;;;4889110;29;20052;-57
2022/01/20 01:20:16;;;;;;;1.38;0.93;;;17.40;52.40;;;;;;4897181;29;20103;-57
2022/01/20 01:22:43;;;;;;;0.73;0.65;;;17.40;52.40;;;;;;4896716;29;20489;-62
2022/01/20 01:25:11;;;;;;;1.95;0.80;;;17.40;52.40;;;;;;4900765;29;20052;-55
2022/01/20 01:27:41;;;;;;;4.45;1.20;;;17.50;52.50;;;;;;4892822;29;20056;-59
2022/01/20 01:30:23;;;;;;;0.65;0.55;;;17.40;52.40;;;;;;4888577;29;20080;-58
2022/01/20 01:32:53;;;;;;;3.05;1.00;;;17.40;52.40;;;;;;4891143;29;20534;-50
2022/01/20 01:35:27;;;;;;;0.73;0.40;;;17.40;52.40;;;;;;4892454;29;20143;-53
2022/01/20 01:40:41;;;;;;;1.17;0.70;;;17.40;52.40;;;;;;4898396;29;20060;-64
2022/01/20 01:43:17;;;;;;;2.60;0.68;;;17.40;52.40;;;;;;4900073;29;20059;-60
2022/01/20 01:45:44;;;;;;;0.95;0.57;;;17.40;52.40;;;;;;4894684;29;20543;-57
2022/01/20 01:48:16;;;;;;;2.25;0.30;;;17.40;52.40;;;;;;4946495;28;20043;-59
2022/01/20 01:50:45;;;;;;;1.40;0.60;;;17.40;52.40;;;;;;4930045;28;20044;-50
2022/01/20 01:53:14;;;;;;;0.95;0.50;;;17.40;52.40;;;;;;4941525;28;20039;-59
2022/01/20 01:55:42;;;;;;;1.42;0.70;;;17.40;52.40;;;;;;4946707;28;20058;-53
2022/01/20 01:58:10;;;;;;;9.85;0.60;;;17.40;52.40;;;;;;4946381;28;20051;-55
2022/01/20 02:00:43;;;;;;;1.48;0.52;;;17.40;52.60;;;;;;4947648;29;20050;-54
2022/01/20 02:03:12;;;;;;;2.00;0.65;;;17.40;52.30;;;;;;4949032;28;20055;-64
2022/01/20 02:06:13;;;;;;;2.15;1.20;;;17.40;52.40;;;;;;4946488;28;20039;-62
2022/01/20 02:08:50;;;;;;;1.38;0.60;;;17.40;52.40;;;;;;4951136;28;20059;-67
2022/01/20 02:19:36;;;;;;;3.08;0.55;;;17.40;52.20;;;;;;4947240;28;20050;-54
2022/01/20 02:22:25;;;;;;;2.30;0.20;;;17.40;52.40;;;;;;4947239;28;20074;-60
2022/01/20 02:25:20;;;;;;;1.55;0.57;;;17.30;52.40;;;;;;4944419;28;20274;-60
2022/01/20 02:27:47;;;;;;;0.95;0.73;;;17.30;52.60;;;;;;4949995;28;20138;-60
2022/01/20 02:30:16;;;;;;;2.25;0.60;;;17.30;52.70;;;;;;4948868;28;20043;-61
2022/01/20 02:32:43;;;;;;;4.97;1.20;;;17.30;52.80;;;;;;4930383;29;20562;-57
2022/01/20 02:35:12;;;;;;;3.80;1.05;;;17.30;52.80;;;;;;4945310;28;20049;-56
2022/01/20 02:37:46;;;;;;;1.10;1.00;;;17.40;52.80;;;;;;4945720;28;20126;-57
2022/01/20 02:40:35;;;;;;;1.00;0.70;;;17.40;52.80;;;;;;4946057;28;20040;-55
2022/01/20 02:45:46;;;;;;;2.25;0.38;;;17.40;52.80;;;;;;4946991;29;20051;-69
2022/01/20 02:48:14;;;;;;;3.95;0.80;;;17.30;52.80;;;;;;4946086;28;20051;-60
2022/01/20 02:50:41;;;;;;;2.35;1.13;;;17.30;52.70;;;;;;4946221;28;20085;-53
2022/01/20 02:53:09;;;;;;;2.42;0.85;;;17.40;52.80;;;;;;4945430;28;20452;-60
2022/01/20 02:55:36;;;;;;;2.15;1.02;;;17.40;52.80;;;;;;4944465;29;20130;-57
2022/01/20 02:58:04;;;;;;;0.68;0.30;;;17.40;52.70;;;;;;4929274;28;20860;-56
2022/01/20 03:00:33;;;;;;;3.63;0.20;;;17.40;52.70;;;;;;4946766;28;20057;-44
2022/01/20 03:03:01;;;;;;;2.70;0.57;;;17.30;52.60;;;;;;4945527;28;20062;-53
2022/01/20 03:05:30;;;;;;;1.75;0.35;;;17.30;52.60;;;;;;4928797;29;20150;-53
2022/01/20 03:08:01;;;;;;;0.38;0.35;;;17.30;53.20;;;;;;4946274;28;20476;-55
2022/01/20 03:10:30;;;;;;;0.65;0.55;;;17.30;52.60;;;;;;4929248;28;20057;-59
2022/01/20 03:12:58;;;;;;;1.92;1.25;;;17.40;52.60;;;;;;4947118;28;20047;-58
2022/01/20 03:15:25;;;;;;;3.63;0.20;;;17.30;52.60;;;;;;4947409;28;20040;-59
2022/01/20 03:17:52;;;;;;;3.00;0.82;;;17.30;52.60;;;;;;4944558;28;20039;-63
2022/01/20 03:20:19;;;;;;;1.75;0.85;;;17.30;52.50;;;;;;4946001;28;20125;-57
2022/01/20 03:22:47;;;;;;;2.30;0.82;;;17.30;52.60;;;;;;4944367;28;20721;-53
2022/01/20 03:25:14;;;;;;;2.20;0.20;;;17.30;52.60;;;;;;4945841;28;20048;-46
2022/01/20 03:27:43;;;;;;;6.10;0.52;;;17.30;52.60;;;;;;4947092;29;20070;-51
2022/01/20 03:30:11;;;;;;;3.33;0.40;;;17.30;52.60;;;;;;4945430;28;20083;-60
2022/01/20 03:32:39;;;;;;;3.15;0.50;;;17.30;52.60;;;;;;4931277;29;20037;-66
2022/01/20 03:35:07;;;;;;;2.05;0.73;;;17.30;52.50;;;;;;4946313;28;20050;-60
2022/01/20 03:37:35;;;;;;;2.35;0.38;;;17.30;52.50;;;;;;4948823;28;20452;-60
2022/01/20 03:40:07;;;;;;;0.57;0.45;;;17.30;52.40;;;;;;4949150;28;20040;-58
2022/01/20 03:42:34;;;;;;;2.70;0.52;;;17.30;52.50;;;;;;4952257;28;20070;-61
2022/01/20 03:45:03;;;;;;;0.65;0.30;;;17.30;52.40;;;;;;4945799;28;20055;-52
2022/01/20 03:47:30;;;;;;;1.45;0.10;;;17.30;52.40;;;;;;4948014;29;20043;-55
2022/01/20 03:50:08;;;;;;;2.83;0.75;;;17.30;52.40;;;;;;4928820;29;20054;-50
2022/01/20 03:52:36;;;;;;;4.55;0.35;;;17.30;52.40;;;;;;4946253;28;20228;-54
2022/01/20 03:55:04;;;;;;;2.67;0.32;;;17.30;52.40;;;;;;4944894;28;20039;-54
2022/01/20 03:57:50;;;;;;;2.80;0.68;;;17.30;52.30;;;;;;4948477;28;20372;-51
2022/01/20 04:00:27;;;;;;;1.60;0.30;;;17.30;52.20;;;;;;4932397;29;20050;-54
2022/01/20 04:03:12;;;;;;;2.10;0.22;;;17.30;52.10;;;;;;4944884;28;20062;-52
2022/01/20 04:06:00;;;;;;;3.00;0.90;;;17.30;52.00;;;;;;4943826;28;20039;-53
2022/01/20 04:08:50;;;;;;;2.95;0.30;;;17.20;52.00;;;;;;4943138;28;20820;-55
2022/01/20 04:11:21;;;;;;;3.47;0.28;;;17.20;52.00;;;;;;4935373;29;20122;-54
2022/01/20 04:13:49;;;;;;;3.83;0.20;;;17.20;52.00;;;;;;4942725;28;20113;-51
2022/01/20 04:16:33;;;;;;;6.38;0.73;;;17.20;52.00;;;;;;4930951;28;20394;-50
2022/01/20 04:19:02;;;;;;;3.05;0.30;;;17.20;52.10;;;;;;4952682;28;20050;-52
2022/01/20 04:21:32;;;;;;;5.28;0.43;;;17.10;52.00;;;;;;4932302;29;20070;-55
2022/01/20 04:24:01;;;;;;;2.65;0.30;;;17.10;51.90;;;;;;4948663;28;20122;-53
2022/01/20 04:26:31;;;;;;;2.65;0.20;;;17.10;51.90;;;;;;4932693;29;20096;-54
2022/01/20 04:28:58;;;;;;;3.20;0.85;;;17.10;51.90;;;;;;4948142;28;20055;-55
2022/01/20 04:31:32;;;;;;;1.77;0.65;;;17.20;51.90;;;;;;4929375;28;20050;-53
2022/01/20 04:34:00;;;;;;;3.40;0.20;;;17.10;51.90;;;;;;4952485;28;20122;-51
2022/01/20 04:36:30;;;;;;;2.28;0.50;;;17.10;51.90;;;;;;4950134;28;20047;-53
2022/01/20 04:39:00;;;;;;;4.30;0.85;;;17.10;51.90;;;;;;4936897;29;20119;-55
2022/01/20 04:41:29;;;;;;;3.85;0.32;;;17.10;51.90;;;;;;4950453;28;20039;-53
2022/01/20 04:43:58;;;;;;;9.27;0.73;;;17.20;51.90;;;;;;4949686;28;20043;-51
2022/01/20 04:46:34;;;;;;;2.53;0.32;;;17.10;51.90;;;;;;4945130;28;20356;-54
2022/01/20 04:56:59;;;;;;;3.92;0.30;;;17.10;51.90;;;;;;4953022;28;20459;-52
2022/01/20 04:57:22;;;;;;;0.30;0.10;;;17.10;51.80;;;;;;4948085;28;20082;-56
2022/01/20 04:59:51;;;;;;;0.75;0.20;;;17.20;51.90;;;;;;4948941;28;20062;-51
2022/01/20 05:02:20;;;;;;;2.00;0.28;;;17.10;51.70;;;;;;4936526;29;20141;-52
2022/01/20 05:04:54;;;;;;;2.17;0.40;;;17.20;51.70;;;;;;4947080;28;20043;-54
2022/01/20 05:07:42;;;;;;;6.22;0.40;;;17.10;51.70;;;;;;4945429;28;20090;-53
2022/01/20 05:10:12;;;;;;;1.10;0.63;;;17.10;51.60;;;;;;4947671;28;20419;-53
2022/01/20 05:13:03;;;;;;;1.90;0.17;;;17.20;51.70;;;;;;4947737;29;20050;-55
2022/01/20 05:15:33;;;;;;;2.55;0.43;;;17.10;51.60;;;;;;4948307;28;20047;-52
2022/01/20 05:18:00;;;;;;;1.25;0.20;;;17.10;51.60;;;;;;4930500;29;20428;-54
2022/01/20 05:20:30;;;;;;;1.13;0.30;;;17.10;51.60;;;;;;4946948;28;20047;-52
2022/01/20 05:22:58;;;;;;;4.35;0.60;;;17.20;51.50;;;;;;4947189;28;20047;-52
2022/01/20 05:25:28;;;;;;;1.30;0.17;;;17.10;51.40;;;;;;4941069;28;20572;-49
2022/01/20 05:27:56;;;;;;;0.68;0.20;;;17.10;51.40;;;;;;4949036;29;20048;-56
2022/01/20 05:30:23;;;;;;;2.15;0.10;;;17.10;51.40;;;;;;4945246;29;20500;-51
2022/01/20 05:33:11;;;;;;;0.43;0.10;;;17.10;51.40;;;;;;4947334;28;20051;-54
2022/01/20 05:35:40;;;;;;;2.15;0.20;;;17.10;51.30;;;;;;4946532;28;20055;-50
2022/01/20 05:38:07;;;;;;;1.55;0.10;;;17.10;51.40;;;;;;4930912;29;20127;-55
2022/01/20 05:40:36;;;;;;;3.75;0.20;;;17.10;51.30;;;;;;4946180;28;20039;-51
2022/01/20 05:43:04;;;;;;;3.95;0.60;;;17.10;51.30;;;;;;4947153;28;20051;-54
2022/01/20 05:45:31;;;;;;;1.35;1.05;;;17.10;51.30;;;;;;4947268;28;20047;-56
2022/01/20 05:48:09;;;;;;;4.07;0.57;;;17.10;51.20;;;;;;4946292;28;20058;-57
2022/01/20 05:51:05;;;;;;;3.65;0.38;;;17.10;51.20;;;;;;4943104;28;20047;-55
2022/01/20 05:53:33;;;;;;;2.15;0.20;;;17.10;51.30;;;;;;4946925;28;20042;-54
2022/01/20 05:56:00;;;;;;;0.50;0.30;;;17.10;51.20;;;;;;4947067;28;20036;-54
2022/01/20 05:58:28;;;;;;;1.83;0.30;;;17.10;51.10;;;;;;4946474;28;20227;-54
2022/01/20 06:00:56;;;;;;;1.92;0.10;;;17.10;51.20;;;;;;4947293;29;20150;-56
2022/01/20 06:03:39;;;;;;;1.85;0.10;;;17.10;51.10;;;;;;4947204;28;20062;-56
2022/01/20 06:06:17;;;;;;;1.08;0.20;;;17.10;51.10;;;;;;4946031;28;20059;-56
2022/01/20 06:08:46;;;;;;;2.30;0.20;;;17.10;51.10;;;;;;4947701;28;20053;-56
2022/01/20 06:11:16;;;;;;;0.30;0.20;;;17.10;51.10;;;;;;4930514;29;20054;-53
2022/01/20 06:13:43;;;;;;;3.42;0.20;;;17.00;51.10;;;;;;4945476;28;20039;-54
2022/01/20 06:16:10;;;;;;;0.90;0.20;;;17.00;51.00;;;;;;4945817;28;20043;-55
2022/01/20 06:18:38;;;;;;;0.20;0.10;;;17.10;51.10;;;;;;4949381;29;20126;-55
2022/01/20 06:21:05;;;;;;;0.95;0.30;;;17.00;51.00;;;;;;4929501;29;20090;-56
2022/01/20 06:23:34;;;;;;;6.10;1.25;;;17.00;51.00;;;;;;4945730;28;20063;-55
2022/01/20 06:26:05;;;;;;;2.50;0.20;;;17.10;51.10;;;;;;4945861;28;20231;-56
2022/01/20 06:28:32;;;;;;;1.30;0.15;;;17.10;51.10;;;;;;4945579;28;20130;-50
2022/01/20 06:31:01;;;;;;;0.52;0.10;;;17.10;51.10;;;;;;4930718;28;20051;-56
2022/01/20 06:33:28;;;;;;;0.60;0.10;;;17.10;51.10;;;;;;4947104;28;20135;-52
2022/01/20 06:35:57;;;;;;;0.95;0.20;;;17.10;51.10;;;;;;4942000;29;20043;-57
2022/01/20 06:38:25;;;;;;;1.35;0.20;;;17.00;51.00;;;;;;4926292;29;20052;-53
2022/01/20 06:40:56;;;;;;;6.53;0.28;;;17.00;51.00;;;;;;4929662;29;20035;-53
2022/01/20 06:43:23;;;;;;;1.20;0.20;;;17.00;51.00;;;;;;4944838;28;20048;-51
2022/01/20 06:45:51;;;;;;;0.52;0.10;;;17.00;50.90;;;;;;4931157;29;20061;-56
2022/01/20 06:48:27;;;;;;;2.80;0.30;;;17.00;50.90;;;;;;4945337;28;20149;-55
2022/01/20 06:51:21;;;;;;;0.20;0.10;;;17.00;50.90;;;;;;4940027;28;20569;-53
2022/01/20 06:53:48;;;;;;;1.17;0.10;;;17.00;51.00;;;;;;4929579;29;20043;-51
2022/01/20 06:56:17;;;;;;;2.13;0.20;;;17.00;51.00;;;;;;4946620;28;20573;-51
2022/01/20 06:58:44;;;;;;;0.75;0.10;;;17.00;51.00;;;;;;4945553;28;20416;-53
2022/01/20 07:01:12;;;;;;;1.00;0.10;;;17.00;50.90;;;;;;4929299;28;20142;-56
2022/01/20 07:03:39;;;;;;;0.88;0.20;;;17.00;50.90;;;;;;4948745;29;20039;-51
2022/01/20 07:06:06;;;;;;;1.15;0.20;;;17.00;50.90;;;;;;4941345;28;20043;-55
2022/01/20 07:08:39;;;;;;;1.38;0.30;;;17.00;51.00;;;;;;4947115;28;20166;-54
2022/01/20 07:11:07;;;;;;;0.60;0.10;;;17.00;50.90;;;;;;4929724;29;20067;-53
2022/01/20 07:13:36;;;;;;;1.85;0.28;;;17.00;50.90;;;;;;4928646;28;20043;-54
2022/01/20 07:16:04;;;;;;;0.88;0.65;;;17.00;50.90;;;;;;4945980;28;20047;-57
2022/01/20 07:18:31;;;;;;;0.73;0.30;;;17.00;50.90;;;;;;4947950;28;20066;-54
2022/01/20 07:20:59;;;;;;;1.33;0.10;;;17.00;50.90;;;;;;4930006;29;20036;-53
2022/01/20 07:23:33;;;;;;;1.05;0.20;;;17.00;50.90;;;;;;4929311;29;20117;-56
2022/01/20 07:26:04;;;;;;;1.85;0.10;;;17.00;50.90;;;;;;4939363;28;20050;-49
2022/01/20 07:28:32;;;;;;;0.88;0.10;;;17.00;50.80;;;;;;4939365;28;20093;-52
2022/01/20 07:31:01;;;;;;;2.65;0.17;;;17.00;50.80;;;;;;4942458;28;20736;-53
2022/01/20 07:33:29;;;;;;;1.67;0.10;;;17.00;50.90;;;;;;4945169;28;20051;-56
2022/01/20 07:35:58;;;;;;;1.58;0.68;;;16.90;50.80;;;;;;4928773;29;20047;-55
2022/01/20 07:38:26;;;;;;;1.08;0.05;;;16.90;50.80;;;;;;4928793;29;20054;-52
2022/01/20 07:40:55;;;;;;;0.20;0.10;;;17.00;50.90;;;;;;4929007;29;20035;-55
2022/01/20 07:43:22;;;;;;;1.58;0.63;;;16.90;50.90;;;;;;4945148;28;20039;-54
2022/01/20 07:46:03;;;;;;;1.92;0.82;;;16.90;50.90;;;;;;4926094;28;20051;-55
2022/01/20 07:48:35;;;;;;;2.70;0.10;;;16.90;51.00;;;;;;4947943;28;20047;-53
2022/01/20 07:51:07;;;;;;;1.30;0.10;;;16.90;50.90;;;;;;4927933;29;20095;-49
2022/01/20 07:53:36;;;;;;;1.08;0.77;;;17.00;51.00;;;;;;4941256;28;20094;-51
2022/01/20 07:56:05;;;;;;;1.00;0.10;;;17.00;51.20;;;;;;4942417;28;20047;-49
2022/01/20 07:58:32;;;;;;;3.70;0.28;;;16.90;51.20;;;;;;4928445;28;20051;-70
2022/01/20 08:01:02;;;;;;;10.95;1.00;;;17.00;51.50;;;;;;4929762;28;20050;-56
2022/01/20 08:03:34;;;;;;;4.60;0.40;;;17.00;51.70;;;;;;4946147;28;20051;-58
2022/01/20 08:06:14;;;;;;;2.88;0.10;;;17.00;51.80;;;;;;4928624;29;20079;-61
2022/01/20 08:08:44;;;;;;;6.05;0.43;;;17.00;51.90;;;;;;4941191;28;20122;-62
2022/01/20 08:11:44;;;;;;;2.78;0.20;;;16.90;51.90;;;;;;4941830;28;20043;-62
2022/01/20 08:14:30;;;;;;;5.15;0.20;;;16.90;52.00;;;;;;4942500;28;20433;-64
2022/01/20 08:16:58;;;;;;;9.98;0.80;;;17.00;52.10;;;;;;4944842;28;20782;-53
2022/01/20 08:19:26;;;;;;;12.80;0.60;;;17.00;52.10;;;;;;4941801;28;20047;-58
2022/01/20 08:21:54;;;;;;;6.03;0.40;;;16.90;52.10;;;;;;4949986;29;20571;-59
2022/01/20 08:24:22;;;;;;;2.67;0.52;;;16.90;52.10;;;;;;4948020;29;20070;-59
2022/01/20 08:26:49;;;;;;;2.53;0.85;;;16.90;52.10;;;;;;4944989;28;20051;-54
2022/01/20 08:29:16;;;;;;;4.90;0.50;;;17.00;52.20;;;;;;4942614;28;20039;-61
2022/01/20 08:31:45;;;;;;;6.20;0.22;;;17.00;52.20;;;;;;4945312;29;20044;-54
2022/01/20 08:34:30;;;;;;;9.95;0.85;;;17.00;52.30;;;;;;4944084;28;20048;-54
2022/01/20 08:37:16;;;;;;;8.43;1.67;;;17.00;52.30;;;;;;4949139;28;20039;-55
2022/01/20 08:39:45;;;;;;;12.48;0.50;;;17.00;52.30;;;;;;4948702;29;20058;-48
2022/01/20 08:42:13;;;;;;;7.75;0.43;;;17.00;52.20;;;;;;4930972;29;20063;-58
2022/01/20 08:44:41;;;;;;;16.92;1.77;;;17.00;52.30;;;;;;4947045;28;20057;-53
2022/01/20 08:47:16;;;;;;;25.02;1.55;;;17.00;54.70;;;;;;4931968;29;20053;-58
2022/01/20 08:49:46;;;;;;;10.95;0.57;;;17.10;56.80;;;;;;4930564;29;20051;-57
2022/01/20 08:52:14;;;;;;;10.23;1.30;;;17.10;58.00;;;;;;4947808;28;20110;-54
2022/01/20 08:54:50;;;;;;;9.65;0.73;;;17.10;58.20;;;;;;4948364;29;20040;-55
2022/01/20 08:57:36;;;;;;;8.68;0.65;;;17.10;58.50;;;;;;4947219;29;20059;-53
2022/01/20 09:00:06;;;;;;;5.40;0.45;;;17.20;58.70;;;;;;4924209;29;20070;-54
2022/01/20 09:02:39;;;;;;;6.85;1.60;;;17.20;58.80;;;;;;4947569;28;20047;-54
2022/01/20 09:05:09;;;;;;;5.07;0.38;;;17.20;58.70;;;;;;4947477;28;20043;-52
2022/01/20 09:07:43;;;;;;;5.22;0.50;;;17.20;58.70;;;;;;4947213;28;20134;-55
2022/01/20 09:10:18;;;;;;;4.43;1.20;;;17.20;58.70;;;;;;4947985;28;20415;-56
2022/01/20 09:15:31;;;;;;;4.32;0.47;;;17.30;58.70;;;;;;4950196;28;20871;-56
2022/01/20 09:18:10;;;;;;;4.85;0.40;;;17.20;58.60;;;;;;4931417;29;20047;-58
2022/01/20 09:20:41;;;;;;;3.83;1.40;;;17.30;58.70;;;;;;4947633;28;20047;-57
2022/01/20 09:23:09;;;;;;;4.32;0.52;;;17.30;58.60;;;;;;4946011;28;20535;-55
2022/01/20 09:25:38;;;;;;;8.20;0.30;;;17.30;58.50;;;;;;4948543;28;20153;-55
2022/01/20 09:28:07;;;;;;;7.05;0.47;;;17.30;58.40;;;;;;4947612;28;20031;-56
2022/01/20 09:30:36;;;;;;;5.63;2.00;;;17.30;58.30;;;;;;4948142;28;20044;-54
2022/01/20 09:33:12;;;;;;;3.80;0.40;;;17.30;58.10;;;;;;4947061;28;20051;-55
2022/01/20 09:35:42;;;;;;;;;;;17.30;58.10;;;;;;4931735;29;20506;-55
2022/01/20 09:38:11;;;;;;;1.02;0.20;;;17.30;57.90;;;;;;4945504;28;19926;-57
2022/01/20 09:40:39;;;;;;;2.25;0.20;;;17.30;58.00;;;;;;4946571;28;20039;-57
2022/01/20 09:43:10;;;;;;;3.60;0.70;;;17.30;57.90;;;;;;4947278;28;20043;-57
2022/01/20 09:45:39;;;;;;;7.45;1.05;;;17.30;57.70;;;;;;4932182;29;20047;-54
2022/01/20 09:48:06;;;;;;;5.63;0.30;;;17.30;57.60;;;;;;4946543;28;20039;-55
2022/01/20 09:50:54;;;;;;;5.00;0.30;;;17.30;57.40;;;;;;4944410;28;20036;-56
2022/01/20 09:53:40;;;;;;;5.15;0.35;;;17.30;57.30;;;;;;4947919;28;20044;-53
2022/01/20 09:56:19;;;;;;;4.80;0.43;;;17.40;57.20;;;;;;4946741;28;20070;-57
2022/01/20 09:58:47;;;;;;;2.55;0.20;;;17.40;57.10;;;;;;4946533;28;20098;-55
2022/01/20 10:01:34;;;;;;;6.85;0.20;;;17.40;57.00;;;;;;4945992;28;20045;-52
2022/01/20 10:04:01;;;;;;;4.75;0.90;;;17.40;56.80;;;;;;4943912;28;20129;-56
2022/01/20 10:06:30;;;;;;;5.18;1.02;;;17.40;56.80;;;;;;4947238;28;20062;-52
2022/01/20 10:09:07;;;;;;;3.42;0.40;;;17.40;56.60;;;;;;4945892;28;20055;-53
2022/01/20 10:12:15;;;;;;;3.22;0.30;;;17.40;56.40;;;;;;4906796;29;20083;-54
2022/01/20 10:15:00;;;;;;;;;;;17.40;56.20;;;;;;4906061;29;20055;-55
2022/01/20 10:18:04;;;;;;;3.50;0.70;;;17.40;56.10;;;;;;4906929;29;19951;-51
2022/01/20 10:20:32;;;;;;;4.78;0.25;;;17.40;56.00;;;;;;4904494;29;20049;-51
2022/01/20 10:23:05;;;;;;;2.63;0.30;;;17.50;55.90;;;;;;4902775;29;20065;-55
2022/01/20 10:25:42;;;;;;;1.42;0.35;;;17.50;55.70;;;;;;4906986;29;20044;-53
2022/01/20 10:28:17;;;;;;;4.25;0.40;;;17.60;55.60;;;;;;4891499;29;20596;-54
2022/01/20 10:30:47;;;;;;;2.20;0.40;;;17.60;55.40;;;;;;4908331;29;20067;-56
2022/01/20 10:33:15;;;;;;;8.23;1.13;;;17.60;55.10;;;;;;4890767;29;20127;-56
2022/01/20 10:35:45;;;;;;;1.63;0.40;;;17.70;55.00;;;;;;4904216;29;20064;-53
2022/01/20 10:38:31;;;;;;;2.65;0.40;;;17.70;54.80;;;;;;4887282;29;20063;-54
2022/01/20 10:41:04;;;;;;;4.32;0.90;;;17.70;54.70;;;;;;4902305;29;20496;-54
2022/01/20 10:43:35;;;;;;;4.40;0.22;;;17.70;54.50;;;;;;4920419;28;20069;-54
2022/01/20 10:46:22;;;;;;;2.20;0.47;;;17.70;54.90;;;;;;4946258;28;20043;-56
2022/01/20 10:48:59;;;;;;;1.85;0.47;;;17.80;54.30;;;;;;4949579;28;20067;-52
2022/01/20 10:51:27;;;;;;;3.65;0.30;;;17.80;54.20;;;;;;4926919;29;20138;-56
2022/01/20 10:54:04;;;;;;;2.00;0.40;;;17.80;54.00;;;;;;4943727;28;20089;-55
2022/01/20 10:56:54;;;;;;;1.35;0.20;;;17.80;53.80;;;;;;4944308;28;20118;-54
2022/01/20 10:59:23;;;;;;;1.13;0.25;;;17.90;53.70;;;;;;4945652;28;20078;-53
2022/01/20 11:02:01;;;;;;;2.60;0.40;;;17.90;53.60;;;;;;4946291;28;20122;-56
2022/01/20 11:04:28;;;;;;;1.95;0.68;;;17.90;53.40;;;;;;4944971;28;20047;-55
2022/01/20 11:06:59;;;;;;;0.93;0.22;;;17.90;53.30;;;;;;4947340;28;20049;-56
2022/01/20 11:09:34;;;;;;;3.40;0.20;;;18.00;53.20;;;;;;4947271;28;20047;-55
2022/01/20 11:12:28;;;;;;;2.45;0.55;;;18.00;53.00;;;;;;4944621;28;20091;-53
2022/01/20 11:15:12;;;;;;;5.70;0.35;;;18.00;52.90;;;;;;4945394;28;20217;-57
2022/01/20 11:17:41;;;;;;;2.63;0.75;;;18.10;52.80;;;;;;4945947;28;20043;-54
2022/01/20 11:20:11;;;;;;;2.20;0.32;;;18.10;52.70;;;;;;4945223;28;20114;-56
2022/01/20 11:22:50;;;;;;;2.65;0.30;;;18.10;52.50;;;;;;4944421;28;20039;-52
2022/01/20 11:25:23;;;;;;;2.17;0.30;;;18.10;52.50;;;;;;4929976;28;20051;-55
2022/01/20 11:28:08;;;;;;;1.30;0.27;;;18.20;52.20;;;;;;4945964;28;20051;-54
2022/01/20 11:30:56;;;;;;;3.60;0.30;;;18.20;52.20;;;;;;4934068;29;20048;-57
2022/01/20 11:33:34;;;;;;;3.28;0.28;;;18.20;52.10;;;;;;4945741;28;20134;-53
2022/01/20 11:36:02;;;;;;;1.67;0.30;;;18.30;51.90;;;;;;4928324;28;20054;-58
2022/01/20 11:38:38;;;;;;;6.03;0.77;;;18.40;51.80;;;;;;4947211;28;20051;-58
2022/01/20 11:41:07;;;;;;;3.75;0.32;;;18.50;51.60;;;;;;4945881;28;20043;-54
2022/01/20 11:43:37;;;;;;;4.40;0.73;;;18.50;51.40;;;;;;4946065;28;20397;-55
2022/01/20 11:46:11;;;;;;;2.90;1.15;;;18.50;51.20;;;;;;4947476;28;20102;-55
2022/01/20 11:48:52;;;;;;;2.25;0.30;;;18.60;51.00;;;;;;4945930;28;20152;-56
2022/01/20 11:51:21;;;;;;;1.65;0.32;;;18.60;50.80;;;;;;4940293;28;20487;-55
2022/01/20 11:54:00;;;;;;;0.85;0.55;;;18.70;50.80;;;;;;4949290;28;20043;-57
2022/01/20 11:56:36;;;;;;;1.45;0.10;;;18.70;50.50;;;;;;4944054;28;20067;-53
2022/01/20 11:59:05;;;;;;;;;;;18.70;50.40;;;;;;4933157;29;20142;-54
2022/01/20 12:01:43;;;;;;;2.90;0.20;;;18.70;50.50;;;;;;4950353;28;19981;-53
2022/01/20 12:04:11;;;;;;;3.15;0.63;;;18.70;50.40;;;;;;4950796;28;20048;-55
2022/01/20 12:06:47;;;;;;;2.38;0.40;;;18.70;50.30;;;;;;4949257;29;20074;-54
2022/01/20 12:09:27;;;;;;;5.88;0.85;;;18.80;50.10;;;;;;4950012;28;20059;-55
2022/01/20 12:11:55;;;;;;;3.13;0.40;;;18.80;50.00;;;;;;4949596;28;20143;-58
2022/01/20 12:14:36;;;;;;;3.53;0.65;;;18.90;49.80;;;;;;4950449;28;20043;-56
2022/01/20 12:17:05;;;;;;;1.55;0.57;;;18.90;49.60;;;;;;4945079;28;20150;-58
2022/01/20 12:19:32;;;;;;;5.28;0.80;;;19.00;49.60;;;;;;4950689;28;20047;-56
2022/01/20 12:22:02;;;;;;;5.78;0.30;;;19.00;49.50;;;;;;4950822;28;20054;-58
2022/01/20 12:24:29;;;;;;;2.58;1.20;;;19.00;49.40;;;;;;4950737;28;20055;-57
2022/01/20 12:26:58;;;;;;;0.65;0.40;;;19.00;49.30;;;;;;4950195;28;20058;-55
2022/01/20 12:29:34;;;;;;;1.48;0.55;;;19.00;49.10;;;;;;4950034;28;20047;-55
2022/01/20 12:32:02;;;;;;;3.20;0.45;;;19.00;49.00;;;;;;4949228;28;20040;-57
2022/01/20 12:34:29;;;;;;;2.70;0.60;;;19.00;49.00;;;;;;4949757;28;20046;-57
2022/01/20 12:36:58;;;;;;;2.78;0.30;;;19.00;48.90;;;;;;4951246;29;20062;-52
2022/01/20 12:39:28;;;;;;;3.95;0.35;;;19.00;48.80;;;;;;4950094;28;20074;-53
2022/01/20 12:41:58;;;;;;;4.13;0.10;;;19.00;48.80;;;;;;4949430;28;20055;-56
2022/01/20 12:44:39;;;;;;;2.13;0.20;;;19.10;48.80;;;;;;4948664;28;20055;-56
2022/01/20 12:47:06;;;;;;;1.20;0.30;;;19.10;48.70;;;;;;4948765;28;20047;-56
2022/01/20 12:49:33;;;;;;;3.10;0.75;;;19.10;48.60;;;;;;4949552;28;20626;-56
2022/01/20 12:52:00;;;;;;;3.67;0.57;;;19.10;48.50;;;;;;4947198;28;20792;-54
2022/01/20 12:54:30;;;;;;;1.42;0.40;;;19.10;48.40;;;;;;4950236;28;20043;-56
2022/01/20 12:57:02;;;;;;;2.75;0.20;;;19.10;48.40;;;;;;4949261;28;20051;-53
2022/01/20 12:59:30;;;;;;;2.42;0.98;;;19.10;48.20;;;;;;4948965;28;20059;-53
2022/01/20 13:02:01;;;;;;;0.73;0.30;;;19.10;48.30;;;;;;4949016;28;20046;-55
2022/01/20 13:04:30;;;;;;;2.75;0.43;;;19.00;48.20;;;;;;4948844;28;20492;-57
2022/01/20 13:07:01;;;;;;;2.38;0.20;;;19.00;48.20;;;;;;4950542;28;20051;-56
2022/01/20 13:09:37;;;;;;;1.88;0.20;;;18.90;48.10;;;;;;4949986;28;20077;-58
2022/01/20 13:12:07;;;;;;;2.28;0.20;;;18.90;48.10;;;;;;4949210;28;20102;-54
2022/01/20 13:14:36;;;;;;;2.83;0.63;;;18.90;48.20;;;;;;4946330;28;20065;-54
2022/01/20 13:17:05;;;;;;;2.45;0.57;;;18.90;48.20;;;;;;4948550;28;20043;-52
2022/01/20 13:19:34;;;;;;;1.80;0.28;;;18.80;48.10;;;;;;4948751;28;20047;-56
2022/01/20 13:22:04;;;;;;;1.08;0.15;;;18.80;48.10;;;;;;4949556;28;20139;-56
2022/01/20 13:24:33;;;;;;;1.30;0.20;;;18.80;48.10;;;;;;4949221;28;20057;-56
2022/01/20 13:27:01;;;;;;;3.28;0.85;;;18.80;48.10;;;;;;4948251;28;20043;-53
2022/01/20 13:29:40;;;;;;;4.65;0.50;;;18.70;48.00;;;;;;4948177;28;20080;-54
2022/01/20 13:32:08;;;;;;;0.73;0.25;;;18.80;48.00;;;;;;4945478;28;20612;-53
2022/01/20 13:34:36;;;;;;;1.45;0.52;;;18.80;48.10;;;;;;4948744;28;20046;-53
2022/01/20 13:37:04;;;;;;;1.65;0.35;;;18.80;48.00;;;;;;4949078;28;20047;-54
2022/01/20 13:39:34;;;;;;;2.22;0.80;;;18.90;48.00;;;;;;4948978;28;20134;-57
2022/01/20 13:42:19;;;;;;;1.75;0.10;;;18.90;47.80;;;;;;4946200;28;20499;-54
2022/01/20 13:45:15;;;;;;;2.05;0.75;;;19.00;47.80;;;;;;4945146;28;20065;-58
2022/01/20 13:47:51;;;;;;;2.95;0.40;;;19.00;47.60;;;;;;4945908;28;20050;-54
2022/01/20 13:50:19;;;;;;;2.50;0.45;;;19.00;47.60;;;;;;4945971;28;20455;-56
2022/01/20 13:52:47;;;;;;;4.93;0.50;;;19.10;47.60;;;;;;4946960;28;20571;-57
2022/01/20 13:55:36;;;;;;;3.05;0.30;;;19.10;47.40;;;;;;4947347;28;20126;-60
2022/01/20 13:58:05;;;;;;;0.77;0.25;;;19.20;47.20;;;;;;4945755;28;20051;-55